createdAt,value
2022-12-14T00:00:00.440Z,-0.77
2022-12-14T00:01:05.580Z,-0.77
2022-12-14T00:02:00.442Z,-0.78
2022-12-14T00:03:00.545Z,-0.78
2022-12-14T00:04:00.413Z,-0.78
2022-12-14T00:05:00.454Z,-0.78
2022-12-14T00:06:08.034Z,-0.78
2022-12-14T00:07:00.421Z,-0.80
2022-12-14T00:08:00.708Z,-0.80
2022-12-14T00:09:01.566Z,-0.80
2022-12-14T00:10:00.414Z,-0.80
2022-12-14T00:11:00.396Z,-0.80
2022-12-14T00:12:00.434Z,-0.82
2022-12-14T00:13:00.772Z,-0.82
2022-12-14T00:14:01.807Z,-0.82
2022-12-14T00:15:00.472Z,-0.82
2022-12-14T00:16:05.034Z,-0.82
2022-12-14T00:17:00.390Z,-0.82
2022-12-14T00:18:00.403Z,-0.82
2022-12-14T00:19:00.791Z,-0.82
2022-12-14T00:20:00.512Z,-0.82
2022-12-14T00:21:02.504Z,-0.82
2022-12-14T00:22:00.388Z,-0.85
2022-12-14T00:23:00.397Z,-0.85
2022-12-14T00:24:00.449Z,-0.85
2022-12-14T00:25:00.433Z,-0.85
2022-12-14T00:26:10.349Z,-0.85
2022-12-14T00:27:00.389Z,-0.88
2022-12-14T00:28:00.394Z,-0.88
2022-12-14T00:29:00.837Z,-0.88
2022-12-14T00:30:00.490Z,-0.88
2022-12-14T00:31:00.670Z,-0.88
2022-12-14T00:32:00.406Z,-0.89
2022-12-14T00:33:00.390Z,-0.89
2022-12-14T00:34:00.409Z,-0.89
2022-12-14T00:35:00.488Z,-0.89
2022-12-14T00:36:01.131Z,-0.89
2022-12-14T00:37:00.460Z,-0.93
2022-12-14T00:38:00.531Z,-0.93
2022-12-14T00:39:00.444Z,-0.93
2022-12-14T00:40:00.410Z,-0.93
2022-12-14T00:41:00.433Z,-0.93
2022-12-14T00:42:00.406Z,-0.95
2022-12-14T00:43:00.459Z,-0.95
2022-12-14T00:44:00.431Z,-0.95
2022-12-14T00:45:00.637Z,-0.95
2022-12-14T00:46:00.400Z,-0.95
2022-12-14T00:47:00.422Z,-1.00
2022-12-14T00:48:00.500Z,-1.00
2022-12-14T00:49:00.384Z,-1.00
2022-12-14T00:50:00.614Z,-1.00
2022-12-14T00:51:00.456Z,-1.00
2022-12-14T00:52:00.459Z,-1.00
2022-12-14T00:53:00.413Z,-1.00
2022-12-14T00:54:00.457Z,-1.00
2022-12-14T00:55:00.448Z,-1.00
2022-12-14T00:56:04.419Z,-1.00
2022-12-14T00:57:00.396Z,-0.99
2022-12-14T00:58:00.404Z,-0.99
2022-12-14T00:59:00.425Z,-0.99
2022-12-14T01:00:00.415Z,-0.99
2022-12-14T01:01:01.906Z,-0.99
2022-12-14T01:02:00.513Z,-1.02
2022-12-14T01:03:00.671Z,-1.02
2022-12-14T01:04:00.454Z,-1.02
2022-12-14T01:05:00.407Z,-1.02
2022-12-14T01:06:00.816Z,-1.02
2022-12-14T01:07:00.433Z,-1.01
2022-12-14T01:08:00.785Z,-1.01
2022-12-14T01:09:00.435Z,-1.01
2022-12-14T01:10:00.456Z,-1.01
2022-12-14T01:11:02.703Z,-1.01
2022-12-14T01:12:00.435Z,-1.02
2022-12-14T01:13:00.433Z,-1.02
2022-12-14T01:14:00.518Z,-1.02
2022-12-14T01:15:00.438Z,-1.02
2022-12-14T01:16:03.012Z,-1.02
2022-12-14T01:17:00.399Z,-1.03
2022-12-14T01:18:00.396Z,-1.03
2022-12-14T01:19:00.854Z,-1.03
2022-12-14T01:20:00.401Z,-1.03
2022-12-14T01:21:08.600Z,-1.03
2022-12-14T01:22:00.395Z,-1.05
2022-12-14T01:23:00.418Z,-1.05
2022-12-14T01:24:01.236Z,-1.05
2022-12-14T01:25:00.425Z,-1.05
2022-12-14T01:26:00.397Z,-1.05
2022-12-14T01:27:00.446Z,-1.05
2022-12-14T01:28:00.541Z,-1.05
2022-12-14T01:29:00.669Z,-1.05
2022-12-14T01:30:00.446Z,-1.05
2022-12-14T01:31:09.054Z,-1.05
2022-12-14T01:32:00.387Z,-1.05
2022-12-14T01:33:00.405Z,-1.05
2022-12-14T01:34:00.697Z,-1.05
2022-12-14T01:35:00.517Z,-1.05
2022-12-14T01:36:04.633Z,-1.05
2022-12-14T01:37:00.459Z,-1.06
2022-12-14T01:38:00.395Z,-1.06
2022-12-14T01:39:02.629Z,-1.06
2022-12-14T01:40:00.494Z,-1.06
2022-12-14T01:41:00.717Z,-1.06
2022-12-14T01:42:00.424Z,-1.08
2022-12-14T01:43:00.408Z,-1.08
2022-12-14T01:44:02.154Z,-1.08
2022-12-14T01:45:00.416Z,-1.08
2022-12-14T01:46:00.505Z,-1.08
2022-12-14T01:47:12.880Z,-1.10
2022-12-14T01:48:02.592Z,-1.10
2022-12-14T01:49:06.131Z,-1.10
2022-12-14T01:50:04.604Z,-1.10
2022-12-14T01:51:00.534Z,-1.10
2022-12-14T01:52:07.787Z,-1.11
2022-12-14T01:53:05.191Z,-1.11
2022-12-14T01:54:02.635Z,-1.11
2022-12-14T01:55:02.880Z,-1.11
2022-12-14T01:56:00.550Z,-1.11
2022-12-14T01:57:00.644Z,-1.13
2022-12-14T01:58:10.393Z,-1.13
2022-12-14T01:59:02.843Z,-1.13
2022-12-14T02:00:06.723Z,-1.13
2022-12-14T02:01:01.015Z,-1.13
2022-12-14T02:02:02.824Z,-1.15
2022-12-14T02:03:06.026Z,-1.15
2022-12-14T02:04:00.990Z,-1.15
2022-12-14T02:05:01.493Z,-1.15
2022-12-14T02:06:04.543Z,-1.15
2022-12-14T02:07:01.574Z,-1.20
2022-12-14T02:08:01.719Z,-1.20
2022-12-14T02:09:02.528Z,-1.20
2022-12-14T02:10:01.967Z,-1.20
2022-12-14T02:11:00.882Z,-1.20
2022-12-14T02:12:05.044Z,-1.23
2022-12-14T02:13:03.797Z,-1.23
2022-12-14T02:14:00.390Z,-1.23
2022-12-14T02:15:01.313Z,-1.23
2022-12-14T02:16:00.478Z,-1.23
2022-12-14T02:17:00.685Z,-1.26
2022-12-14T02:18:02.334Z,-1.26
2022-12-14T02:19:00.410Z,-1.26
2022-12-14T02:20:01.137Z,-1.26
2022-12-14T02:21:10.327Z,-1.26
2022-12-14T02:22:03.730Z,-1.30
2022-12-14T02:23:10.304Z,-1.30
2022-12-14T02:24:10.322Z,-1.30
2022-12-14T02:25:10.323Z,-1.30
2022-12-14T02:26:09.430Z,-1.30
2022-12-14T02:27:10.345Z,-1.33
2022-12-14T02:28:08.460Z,-1.33
2022-12-14T02:29:10.310Z,-1.33
2022-12-14T02:30:01.402Z,-1.33
2022-12-14T02:31:05.807Z,-1.33
2022-12-14T02:32:01.419Z,-1.40
2022-12-14T02:33:10.326Z,-1.40
2022-12-14T02:34:08.660Z,-1.40
2022-12-14T02:35:06.751Z,-1.40
2022-12-14T02:36:07.076Z,-1.40
2022-12-14T02:37:01.399Z,-1.44
2022-12-14T02:38:07.007Z,-1.44
2022-12-14T02:39:10.068Z,-1.44
2022-12-14T02:40:00.396Z,-1.44
2022-12-14T02:41:10.315Z,-1.44
2022-12-14T02:42:09.690Z,-1.47
2022-12-14T02:43:10.332Z,-1.47
2022-12-14T02:44:10.333Z,-1.47
2022-12-14T02:45:07.332Z,-1.47
2022-12-14T02:46:10.447Z,-1.47
2022-12-14T02:47:05.347Z,-1.52
2022-12-14T02:48:02.035Z,-1.52
2022-12-14T02:49:09.890Z,-1.52
2022-12-14T02:50:01.420Z,-1.52
2022-12-14T02:51:06.153Z,-1.52
2022-12-14T02:52:00.367Z,-1.53
2022-12-14T02:53:08.402Z,-1.53
2022-12-14T02:54:03.499Z,-1.53
2022-12-14T02:55:04.124Z,-1.53
2022-12-14T02:56:03.005Z,-1.53
2022-12-14T02:57:10.331Z,-1.58
2022-12-14T02:58:10.340Z,-1.58
2022-12-14T02:59:02.343Z,-1.58
2022-12-14T03:00:02.340Z,-1.58
2022-12-14T03:01:00.549Z,-1.58
2022-12-14T03:02:02.486Z,-1.58
2022-12-14T03:03:01.147Z,-1.58
2022-12-14T03:04:00.588Z,-1.58
2022-12-14T03:05:00.443Z,-1.58
2022-12-14T03:06:01.589Z,-1.58
2022-12-14T03:07:02.097Z,-1.62
2022-12-14T03:08:01.424Z,-1.62
2022-12-14T03:09:03.780Z,-1.62
2022-12-14T03:10:10.319Z,-1.62
2022-12-14T03:11:02.859Z,-1.62
2022-12-14T03:12:04.626Z,-1.66
2022-12-14T03:13:05.334Z,-1.66
2022-12-14T03:14:04.417Z,-1.66
2022-12-14T03:15:02.131Z,-1.66
2022-12-14T03:16:06.101Z,-1.66
2022-12-14T03:17:03.590Z,-1.74
2022-12-14T03:18:01.931Z,-1.74
2022-12-14T03:19:04.689Z,-1.74
2022-12-14T03:20:05.246Z,-1.74
2022-12-14T03:21:01.667Z,-1.74
2022-12-14T03:22:04.976Z,-1.77
2022-12-14T03:23:05.114Z,-1.77
2022-12-14T03:24:03.306Z,-1.77
2022-12-14T03:25:04.867Z,-1.77
2022-12-14T03:26:10.334Z,-1.77
2022-12-14T03:27:04.144Z,-1.83
2022-12-14T03:28:06.628Z,-1.83
2022-12-14T03:29:04.817Z,-1.83
2022-12-14T03:30:09.644Z,-1.83
2022-12-14T03:31:05.049Z,-1.83
2022-12-14T03:32:05.248Z,-1.91
2022-12-14T03:33:03.947Z,-1.91
2022-12-14T03:34:02.229Z,-1.91
2022-12-14T03:35:02.558Z,-1.91
2022-12-14T03:36:11.151Z,-1.91
2022-12-14T03:37:07.766Z,-1.98
2022-12-14T03:38:10.323Z,-1.98
2022-12-14T03:39:02.901Z,-1.98
2022-12-14T03:40:00.474Z,-1.98
2022-12-14T03:41:10.334Z,-1.98
2022-12-14T03:42:03.674Z,-2.04
2022-12-14T03:43:10.308Z,-2.04
2022-12-14T03:44:03.681Z,-2.04
2022-12-14T03:45:01.439Z,-2.04
2022-12-14T03:46:07.151Z,-2.04
2022-12-14T03:47:07.766Z,-2.11
2022-12-14T03:48:10.337Z,-2.11
2022-12-14T03:49:07.261Z,-2.11
2022-12-14T03:50:03.553Z,-2.11
2022-12-14T03:51:05.107Z,-2.11
2022-12-14T03:52:05.712Z,-2.15
2022-12-14T03:53:04.846Z,-2.15
2022-12-14T03:54:10.400Z,-2.15
2022-12-14T03:55:10.357Z,-2.15
2022-12-14T03:56:01.401Z,-2.15
2022-12-14T03:57:07.214Z,-2.21
2022-12-14T03:58:10.392Z,-2.21
2022-12-14T03:59:06.116Z,-2.21
2022-12-14T04:00:03.503Z,-2.21
2022-12-14T04:01:10.580Z,-2.21
2022-12-14T04:02:01.509Z,-2.30
2022-12-14T04:03:07.637Z,-2.30
2022-12-14T04:04:10.301Z,-2.30
2022-12-14T04:05:05.332Z,-2.30
2022-12-14T04:06:04.963Z,-2.30
2022-12-14T04:07:06.965Z,-2.38
2022-12-14T04:08:10.339Z,-2.38
2022-12-14T04:09:00.442Z,-2.38
2022-12-14T04:10:05.306Z,-2.38
2022-12-14T04:11:02.527Z,-2.38
2022-12-14T04:12:03.299Z,-2.44
2022-12-14T04:13:04.505Z,-2.44
2022-12-14T04:14:10.592Z,-2.44
2022-12-14T04:15:05.850Z,-2.44
2022-12-14T04:16:16.733Z,-2.44
2022-12-14T04:17:02.745Z,-2.52
2022-12-14T04:18:04.786Z,-2.52
2022-12-14T04:19:04.255Z,-2.52
2022-12-14T04:20:09.777Z,-2.52
2022-12-14T04:21:05.971Z,-2.52
2022-12-14T04:22:03.322Z,-2.65
2022-12-14T04:23:03.755Z,-2.65
2022-12-14T04:24:05.580Z,-2.65
2022-12-14T04:25:05.529Z,-2.65
2022-12-14T04:26:00.734Z,-2.65
2022-12-14T04:27:04.284Z,-2.71
2022-12-14T04:28:01.508Z,-2.71
2022-12-14T04:29:04.444Z,-2.71
2022-12-14T04:30:00.857Z,-2.71
2022-12-14T04:31:03.110Z,-2.71
2022-12-14T04:32:07.496Z,-2.83
2022-12-14T04:33:04.244Z,-2.83
2022-12-14T04:34:02.580Z,-2.83
2022-12-14T04:35:08.269Z,-2.83
2022-12-14T04:36:02.292Z,-2.83
2022-12-14T04:37:02.865Z,-2.92
2022-12-14T04:38:03.035Z,-2.92
2022-12-14T04:39:04.084Z,-2.92
2022-12-14T04:40:04.131Z,-2.92
2022-12-14T04:41:03.651Z,-2.92
2022-12-14T04:42:01.654Z,-2.97
2022-12-14T04:43:02.100Z,-2.97
2022-12-14T04:44:02.538Z,-2.97
2022-12-14T04:45:03.998Z,-2.97
2022-12-14T04:46:04.413Z,-2.97
2022-12-14T04:47:01.273Z,-3.00
2022-12-14T04:48:10.333Z,-3.00
2022-12-14T04:49:07.873Z,-3.00
2022-12-14T04:50:10.414Z,-3.00
2022-12-14T04:51:06.808Z,-3.00
2022-12-14T04:52:04.958Z,-2.98
2022-12-14T04:53:05.677Z,-2.98
2022-12-14T04:54:09.706Z,-2.98
2022-12-14T04:55:01.401Z,-2.98
2022-12-14T04:56:09.996Z,-2.98
2022-12-14T04:57:07.341Z,-2.96
2022-12-14T04:58:10.334Z,-2.96
2022-12-14T04:59:00.765Z,-2.96
2022-12-14T05:00:00.680Z,-2.96
2022-12-14T05:01:08.524Z,-2.96
2022-12-14T05:02:00.549Z,-2.99
2022-12-14T05:03:10.373Z,-2.99
2022-12-14T05:04:12.718Z,-2.99
2022-12-14T05:05:10.418Z,-2.99
2022-12-14T05:06:09.725Z,-2.99
2022-12-14T05:07:10.331Z,-3.04
2022-12-14T05:08:09.718Z,-3.04
2022-12-14T05:09:01.531Z,-3.04
2022-12-14T05:10:04.514Z,-3.04
2022-12-14T05:11:39.569Z,-3.04
2022-12-14T05:12:06.314Z,-3.10
2022-12-14T05:13:04.135Z,-3.10
2022-12-14T05:14:03.234Z,-3.10
2022-12-14T05:15:05.443Z,-3.10
2022-12-14T05:16:00.479Z,-3.10
2022-12-14T05:17:08.204Z,-3.25
2022-12-14T05:18:01.988Z,-3.25
2022-12-14T05:19:00.500Z,-3.25
2022-12-14T05:20:00.406Z,-3.25
2022-12-14T05:21:00.401Z,-3.25
2022-12-14T05:22:04.896Z,-3.29
2022-12-14T05:23:00.457Z,-3.29
2022-12-14T05:24:01.704Z,-3.29
2022-12-14T05:25:00.441Z,-3.29
2022-12-14T05:26:00.420Z,-3.29
2022-12-14T05:27:00.386Z,-3.29
2022-12-14T05:28:00.504Z,-3.29
2022-12-14T05:29:00.387Z,-3.29
2022-12-14T05:30:00.429Z,-3.29
2022-12-14T05:31:00.497Z,-3.29
2022-12-14T05:32:00.903Z,-3.36
2022-12-14T05:33:00.520Z,-3.36
2022-12-14T05:34:00.403Z,-3.36
2022-12-14T05:35:01.030Z,-3.36
2022-12-14T05:36:00.420Z,-3.36
2022-12-14T05:37:00.421Z,-3.44
2022-12-14T05:38:00.438Z,-3.44
2022-12-14T05:39:00.396Z,-3.44
2022-12-14T05:40:00.478Z,-3.44
2022-12-14T05:41:00.555Z,-3.44
2022-12-14T05:42:00.388Z,-3.45
2022-12-14T05:43:09.887Z,-3.45
2022-12-14T05:44:00.504Z,-3.45
2022-12-14T05:45:00.402Z,-3.45
2022-12-14T05:46:01.859Z,-3.45
2022-12-14T05:47:00.448Z,-3.51
2022-12-14T05:48:00.409Z,-3.51
2022-12-14T05:49:00.392Z,-3.51
2022-12-14T05:50:00.403Z,-3.51
2022-12-14T05:51:04.371Z,-3.51
2022-12-14T05:52:00.430Z,-3.51
2022-12-14T05:53:00.402Z,-3.51
2022-12-14T05:54:00.409Z,-3.51
2022-12-14T05:55:04.064Z,-3.51
2022-12-14T05:56:00.634Z,-3.51
2022-12-14T05:57:00.399Z,-3.55
2022-12-14T05:58:00.397Z,-3.55
2022-12-14T05:59:00.601Z,-3.55
2022-12-14T06:00:00.457Z,-3.55
2022-12-14T06:01:01.167Z,-3.55
2022-12-14T06:02:00.819Z,-3.61
2022-12-14T06:03:00.454Z,-3.61
2022-12-14T06:04:02.065Z,-3.61
2022-12-14T06:05:00.409Z,-3.61
2022-12-14T06:06:05.341Z,-3.61
2022-12-14T06:07:00.517Z,-3.71
2022-12-14T06:08:00.627Z,-3.71
2022-12-14T06:09:00.428Z,-3.71
2022-12-14T06:10:00.422Z,-3.71
2022-12-14T06:11:02.456Z,-3.71
2022-12-14T06:12:00.409Z,-3.93
2022-12-14T06:13:00.461Z,-3.93
2022-12-14T06:14:00.389Z,-3.93
2022-12-14T06:15:00.424Z,-3.93
2022-12-14T06:16:10.394Z,-3.93
2022-12-14T06:17:00.433Z,-4.01
2022-12-14T06:18:00.423Z,-4.01
2022-12-14T06:19:02.430Z,-4.01
2022-12-14T06:20:00.403Z,-4.01
2022-12-14T06:21:00.406Z,-4.01
2022-12-14T06:22:00.458Z,-4.04
2022-12-14T06:23:00.636Z,-4.04
2022-12-14T06:24:00.968Z,-4.04
2022-12-14T06:25:00.635Z,-4.04
2022-12-14T06:26:00.434Z,-4.04
2022-12-14T06:27:00.418Z,-3.96
2022-12-14T06:28:00.393Z,-3.96
2022-12-14T06:29:00.512Z,-3.96
2022-12-14T06:30:00.489Z,-3.96
2022-12-14T06:31:00.672Z,-3.96
2022-12-14T06:32:00.405Z,-3.93
2022-12-14T06:33:00.399Z,-3.93
2022-12-14T06:34:01.482Z,-3.93
2022-12-14T06:35:00.422Z,-3.93
2022-12-14T06:36:00.703Z,-3.93
2022-12-14T06:37:00.390Z,-3.97
2022-12-14T06:38:00.421Z,-3.97
2022-12-14T06:39:01.911Z,-3.97
2022-12-14T06:40:00.427Z,-3.97
2022-12-14T06:41:00.395Z,-3.97
2022-12-14T06:42:00.410Z,-4.03
2022-12-14T06:43:00.379Z,-4.03
2022-12-14T06:44:02.544Z,-4.03
2022-12-14T06:45:00.393Z,-4.03
2022-12-14T06:46:00.474Z,-4.03
2022-12-14T06:47:00.590Z,-4.06
2022-12-14T06:48:00.436Z,-4.06
2022-12-14T06:49:00.888Z,-4.06
2022-12-14T06:50:00.413Z,-4.06
2022-12-14T06:51:01.177Z,-4.06
2022-12-14T06:52:00.460Z,-4.00
2022-12-14T06:53:00.456Z,-4.00
2022-12-14T06:54:00.471Z,-4.00
2022-12-14T06:55:00.402Z,-4.00
2022-12-14T06:56:08.747Z,-4.00
2022-12-14T06:57:00.395Z,-4.02
2022-12-14T06:58:00.421Z,-4.02
2022-12-14T06:59:00.413Z,-4.02
2022-12-14T07:00:00.448Z,-4.02
2022-12-14T07:01:01.998Z,-4.02
2022-12-14T07:02:00.519Z,-3.93
2022-12-14T07:03:00.536Z,-3.93
2022-12-14T07:04:00.584Z,-3.93
2022-12-14T07:05:00.415Z,-3.93
2022-12-14T07:06:01.054Z,-3.93
2022-12-14T07:07:00.482Z,-3.89
2022-12-14T07:08:00.554Z,-3.89
2022-12-14T07:09:00.399Z,-3.89
2022-12-14T07:10:00.646Z,-3.89
2022-12-14T07:11:10.336Z,-3.89
2022-12-14T07:12:00.407Z,-3.89
2022-12-14T07:13:00.412Z,-3.89
2022-12-14T07:14:00.556Z,-3.89
2022-12-14T07:15:00.613Z,-3.89
2022-12-14T07:16:00.791Z,-3.89
2022-12-14T07:17:00.393Z,-3.86
2022-12-14T07:18:00.382Z,-3.86
2022-12-14T07:19:00.425Z,-3.86
2022-12-14T07:20:00.406Z,-3.86
2022-12-14T07:21:03.189Z,-3.86
2022-12-14T07:22:00.400Z,-3.85
2022-12-14T07:23:00.446Z,-3.85
2022-12-14T07:24:00.432Z,-3.85
2022-12-14T07:25:00.743Z,-3.85
2022-12-14T07:26:01.495Z,-3.85
2022-12-14T07:27:00.407Z,-3.84
2022-12-14T07:28:00.410Z,-3.84
2022-12-14T07:29:00.497Z,-3.84
2022-12-14T07:30:00.425Z,-3.84
2022-12-14T07:31:05.731Z,-3.84
2022-12-14T07:32:00.452Z,-3.85
2022-12-14T07:33:00.438Z,-3.85
2022-12-14T07:34:00.425Z,-3.85
2022-12-14T07:35:00.405Z,-3.85
2022-12-14T07:36:02.932Z,-3.85
2022-12-14T07:37:00.423Z,-3.87
2022-12-14T07:38:00.410Z,-3.87
2022-12-14T07:39:00.393Z,-3.87
2022-12-14T07:40:00.419Z,-3.87
2022-12-14T07:41:01.341Z,-3.87
2022-12-14T07:42:00.393Z,-3.93
2022-12-14T07:43:00.396Z,-3.93
2022-12-14T07:44:00.420Z,-3.93
2022-12-14T07:45:00.423Z,-3.93
2022-12-14T07:46:01.494Z,-3.93
2022-12-14T07:47:00.403Z,-3.95
2022-12-14T07:48:00.439Z,-3.95
2022-12-14T07:49:01.021Z,-3.95
2022-12-14T07:50:00.418Z,-3.95
2022-12-14T07:51:09.095Z,-3.95
2022-12-14T07:52:00.467Z,-3.99
2022-12-14T07:53:00.432Z,-3.99
2022-12-14T07:54:01.166Z,-3.99
2022-12-14T07:55:00.400Z,-3.99
2022-12-14T07:56:01.645Z,-3.99
2022-12-14T07:57:00.463Z,-4.01
2022-12-14T07:58:00.444Z,-4.01
2022-12-14T07:59:01.300Z,-4.01
2022-12-14T08:00:00.414Z,-4.01
2022-12-14T08:01:07.716Z,-4.01
2022-12-14T08:02:00.476Z,-3.96
2022-12-14T08:03:00.408Z,-3.96
2022-12-14T08:04:03.916Z,-3.96
2022-12-14T08:05:00.488Z,-3.96
2022-12-14T08:06:02.926Z,-3.96
2022-12-14T08:07:00.391Z,-4.04
2022-12-14T08:08:00.446Z,-4.04
2022-12-14T08:09:00.432Z,-4.04
2022-12-14T08:10:00.430Z,-4.04
2022-12-14T08:11:00.790Z,-4.04
2022-12-14T08:12:00.414Z,-4.18
2022-12-14T08:13:00.415Z,-4.18
2022-12-14T08:14:03.584Z,-4.18
2022-12-14T08:15:00.392Z,-4.18
2022-12-14T08:16:01.214Z,-4.18
2022-12-14T08:17:00.446Z,-4.22
2022-12-14T08:18:00.485Z,-4.22
2022-12-14T08:19:00.534Z,-4.22
2022-12-14T08:20:00.506Z,-4.22
2022-12-14T08:21:01.368Z,-4.22
2022-12-14T08:22:00.446Z,-4.10
2022-12-14T08:23:00.430Z,-4.10
2022-12-14T08:24:00.464Z,-4.10
2022-12-14T08:25:00.396Z,-4.10
2022-12-14T08:26:00.981Z,-4.10
2022-12-14T08:27:00.487Z,-4.05
2022-12-14T08:28:00.468Z,-4.05
2022-12-14T08:29:00.703Z,-4.05
2022-12-14T08:30:00.872Z,-4.05
2022-12-14T08:31:09.503Z,-4.05
2022-12-14T08:32:00.556Z,-4.03
2022-12-14T08:33:00.635Z,-4.03
2022-12-14T08:34:00.794Z,-4.03
2022-12-14T08:35:00.504Z,-4.03
2022-12-14T08:36:09.220Z,-4.03
2022-12-14T08:37:00.462Z,-4.03
2022-12-14T08:38:01.151Z,-4.03
2022-12-14T08:39:02.778Z,-4.03
2022-12-14T08:40:00.510Z,-4.03
2022-12-14T08:41:01.334Z,-4.03
2022-12-14T08:42:00.424Z,-3.99
2022-12-14T08:43:00.459Z,-3.99
2022-12-14T08:44:01.220Z,-3.99
2022-12-14T08:45:00.445Z,-3.99
2022-12-14T08:46:00.516Z,-3.99
2022-12-14T08:47:00.510Z,-4.05
2022-12-14T08:48:00.507Z,-4.05
2022-12-14T08:49:00.421Z,-4.05
2022-12-14T08:50:00.414Z,-4.05
2022-12-14T08:51:01.240Z,-4.05
2022-12-14T08:52:00.418Z,-4.05
2022-12-14T08:53:00.459Z,-4.05
2022-12-14T08:54:00.418Z,-4.05
2022-12-14T08:55:00.446Z,-4.05
2022-12-14T08:56:04.234Z,-4.05
2022-12-14T08:57:00.397Z,-3.97
2022-12-14T08:58:00.391Z,-3.97
2022-12-14T08:59:00.412Z,-3.97
2022-12-14T09:00:02.360Z,-3.97
2022-12-14T09:01:01.223Z,-3.97
2022-12-14T09:02:00.621Z,-4.05
2022-12-14T09:03:00.563Z,-4.05
2022-12-14T09:04:01.473Z,-4.05
2022-12-14T09:05:00.756Z,-4.05
2022-12-14T09:06:01.355Z,-4.05
2022-12-14T09:07:00.405Z,-4.07
2022-12-14T09:08:00.439Z,-4.07
2022-12-14T09:09:00.419Z,-4.07
2022-12-14T09:10:00.404Z,-4.07
2022-12-14T09:11:01.237Z,-4.07
2022-12-14T09:12:00.524Z,-3.97
2022-12-14T09:13:00.419Z,-3.97
2022-12-14T09:14:01.173Z,-3.97
2022-12-14T09:15:00.486Z,-3.97
2022-12-14T09:16:03.272Z,-3.97
2022-12-14T09:17:00.942Z,-3.89
2022-12-14T09:18:00.407Z,-3.89
2022-12-14T09:19:00.408Z,-3.89
2022-12-14T09:20:00.456Z,-3.89
2022-12-14T09:21:00.684Z,-3.89
2022-12-14T09:22:00.435Z,-3.86
2022-12-14T09:23:00.397Z,-3.86
2022-12-14T09:24:00.429Z,-3.86
2022-12-14T09:25:00.680Z,-3.86
2022-12-14T09:26:10.312Z,-3.86
2022-12-14T09:27:01.034Z,-3.79
2022-12-14T09:28:00.422Z,-3.79
2022-12-14T09:29:00.430Z,-3.79
2022-12-14T09:30:00.420Z,-3.79
2022-12-14T09:31:01.522Z,-3.79
2022-12-14T09:32:00.449Z,-3.75
2022-12-14T09:33:00.601Z,-3.75
2022-12-14T09:34:00.419Z,-3.75
2022-12-14T09:35:00.404Z,-3.75
2022-12-14T09:36:05.258Z,-3.75
2022-12-14T09:37:00.431Z,-3.71
2022-12-14T09:38:00.400Z,-3.71
2022-12-14T09:39:00.639Z,-3.71
2022-12-14T09:40:00.525Z,-3.71
2022-12-14T09:41:05.909Z,-3.71
2022-12-14T09:42:05.783Z,-3.67
2022-12-14T09:43:04.213Z,-3.67
2022-12-14T09:44:04.852Z,-3.67
2022-12-14T09:45:00.406Z,-3.67
2022-12-14T09:46:10.271Z,-3.67
2022-12-14T09:47:00.395Z,-3.60
2022-12-14T09:48:00.414Z,-3.60
2022-12-14T09:49:01.174Z,-3.60
2022-12-14T09:50:02.737Z,-3.60
2022-12-14T09:51:00.801Z,-3.60
2022-12-14T09:52:03.093Z,-3.55
2022-12-14T09:53:01.345Z,-3.55
2022-12-14T09:54:02.957Z,-3.55
2022-12-14T09:55:02.071Z,-3.55
2022-12-14T09:56:00.813Z,-3.55
2022-12-14T09:57:03.239Z,-3.47
2022-12-14T09:58:05.781Z,-3.47
2022-12-14T09:59:01.491Z,-3.47
2022-12-14T10:00:00.421Z,-3.47
2022-12-14T10:01:01.479Z,-3.47
2022-12-14T10:02:31.577Z,-3.38
2022-12-14T10:03:10.487Z,-3.38
2022-12-14T10:04:00.541Z,-3.38
2022-12-14T10:05:00.381Z,-3.38
2022-12-14T10:06:01.419Z,-3.38
2022-12-14T10:07:07.886Z,-3.32
2022-12-14T10:08:00.414Z,-3.32
2022-12-14T10:09:06.284Z,-3.32
2022-12-14T10:10:07.854Z,-3.32
2022-12-14T10:11:01.439Z,-3.32
2022-12-14T10:12:01.428Z,-3.19
2022-12-14T10:13:10.319Z,-3.19
2022-12-14T10:14:07.239Z,-3.19
2022-12-14T10:15:09.326Z,-3.19
2022-12-14T10:16:10.365Z,-3.19
2022-12-14T10:17:09.037Z,-3.05
2022-12-14T10:18:01.404Z,-3.05
2022-12-14T10:19:10.964Z,-3.05
2022-12-14T10:20:10.315Z,-3.05
2022-12-14T10:21:00.393Z,-3.05
2022-12-14T10:22:03.537Z,-2.96
2022-12-14T10:23:00.993Z,-2.96
2022-12-14T10:24:02.314Z,-2.96
2022-12-14T10:25:05.652Z,-2.96
2022-12-14T10:26:02.209Z,-2.96
2022-12-14T10:27:01.524Z,-2.88
2022-12-14T10:28:11.484Z,-2.88
2022-12-14T10:29:01.653Z,-2.88
2022-12-14T10:30:02.326Z,-2.88
2022-12-14T10:31:01.068Z,-2.88
2022-12-14T10:32:03.863Z,-2.83
2022-12-14T10:33:09.026Z,-2.83
2022-12-14T10:34:12.347Z,-2.83
2022-12-14T10:35:10.305Z,-2.83
2022-12-14T10:36:00.383Z,-2.83
2022-12-14T10:37:04.336Z,-2.76
2022-12-14T10:38:03.988Z,-2.76
2022-12-14T10:39:10.308Z,-2.76
2022-12-14T10:40:11.798Z,-2.76
2022-12-14T10:41:10.330Z,-2.76
2022-12-14T10:42:07.172Z,-2.72
2022-12-14T10:43:10.312Z,-2.72
2022-12-14T10:44:07.912Z,-2.72
2022-12-14T10:45:39.111Z,-2.72
2022-12-14T10:46:01.456Z,-2.72
2022-12-14T10:47:04.689Z,-2.57
2022-12-14T10:48:10.314Z,-2.57
2022-12-14T10:49:04.306Z,-2.57
2022-12-14T10:50:01.409Z,-2.57
2022-12-14T10:51:10.297Z,-2.57
2022-12-14T10:52:04.689Z,-2.46
2022-12-14T10:53:01.737Z,-2.46
2022-12-14T10:54:09.814Z,-2.46
2022-12-14T10:55:03.313Z,-2.46
2022-12-14T10:56:03.723Z,-2.46
2022-12-14T10:57:00.591Z,-2.39
2022-12-14T10:58:00.404Z,-2.39
2022-12-14T10:59:10.373Z,-2.39
2022-12-14T11:00:09.259Z,-2.39
2022-12-14T11:01:00.433Z,-2.39
2022-12-14T11:02:02.955Z,-2.34
2022-12-14T11:03:01.496Z,-2.34
2022-12-14T11:04:00.538Z,-2.34
2022-12-14T11:05:01.783Z,-2.34
2022-12-14T11:06:09.836Z,-2.34
2022-12-14T11:07:02.607Z,-2.29
2022-12-14T11:08:00.449Z,-2.29
2022-12-14T11:09:09.029Z,-2.29
2022-12-14T11:10:10.324Z,-2.29
2022-12-14T11:11:11.574Z,-2.29
2022-12-14T11:12:05.596Z,-2.21
2022-12-14T11:13:01.422Z,-2.21
2022-12-14T11:14:08.478Z,-2.21
2022-12-14T11:15:03.543Z,-2.21
2022-12-14T11:16:10.337Z,-2.21
2022-12-14T11:17:00.648Z,-2.12
2022-12-14T11:18:02.566Z,-2.12
2022-12-14T11:19:01.281Z,-2.12
2022-12-14T11:20:07.822Z,-2.12
2022-12-14T11:21:01.902Z,-2.12
2022-12-14T11:22:10.333Z,-2.12
2022-12-14T11:23:10.320Z,-2.12
2022-12-14T11:24:00.752Z,-2.12
2022-12-14T11:25:00.422Z,-2.12
2022-12-14T11:26:01.873Z,-2.12
2022-12-14T11:27:02.662Z,-1.94
2022-12-14T11:28:04.278Z,-1.94
2022-12-14T11:29:01.649Z,-1.94
2022-12-14T11:30:00.447Z,-1.94
2022-12-14T11:31:05.223Z,-1.94
2022-12-14T11:32:00.734Z,-1.95
2022-12-14T11:33:00.419Z,-1.95
2022-12-14T11:34:01.940Z,-1.95
2022-12-14T11:35:00.529Z,-1.95
2022-12-14T11:36:00.795Z,-1.95
2022-12-14T11:37:10.336Z,-1.84
2022-12-14T11:38:00.500Z,-1.84
2022-12-14T11:39:02.598Z,-1.84
2022-12-14T11:40:03.288Z,-1.84
2022-12-14T11:41:05.887Z,-1.84
2022-12-14T11:42:01.676Z,-1.81
2022-12-14T11:43:02.488Z,-1.81
2022-12-14T11:44:05.343Z,-1.81
2022-12-14T11:45:10.329Z,-1.81
2022-12-14T11:46:00.720Z,-1.81
2022-12-14T11:47:03.666Z,-1.76
2022-12-14T11:48:10.308Z,-1.76
2022-12-14T11:49:00.414Z,-1.76
2022-12-14T11:50:00.451Z,-1.76
2022-12-14T11:51:10.320Z,-1.76
2022-12-14T11:52:03.692Z,-1.65
2022-12-14T11:53:11.651Z,-1.65
2022-12-14T11:54:01.035Z,-1.65
2022-12-14T11:55:00.398Z,-1.65
2022-12-14T11:56:02.699Z,-1.65
2022-12-14T11:57:06.125Z,-1.62
2022-12-14T11:58:00.581Z,-1.62
2022-12-14T11:59:00.643Z,-1.62
2022-12-14T12:00:03.358Z,-1.62
2022-12-14T12:01:03.645Z,-1.62
2022-12-14T12:02:07.613Z,-1.55
2022-12-14T12:03:04.199Z,-1.55
2022-12-14T12:04:00.874Z,-1.55
2022-12-14T12:05:10.332Z,-1.55
2022-12-14T12:06:03.157Z,-1.55
2022-12-14T12:07:10.349Z,-1.49
2022-12-14T12:08:00.903Z,-1.49
2022-12-14T12:09:01.431Z,-1.49
2022-12-14T12:10:02.378Z,-1.49
2022-12-14T12:11:02.880Z,-1.49
2022-12-14T12:12:00.421Z,-1.42
2022-12-14T12:13:01.543Z,-1.42
2022-12-14T12:14:02.980Z,-1.42
2022-12-14T12:15:01.335Z,-1.42
2022-12-14T12:16:03.282Z,-1.42
2022-12-14T12:17:00.460Z,-1.40
2022-12-14T12:18:04.003Z,-1.40
2022-12-14T12:19:05.193Z,-1.40
2022-12-14T12:20:00.447Z,-1.40
2022-12-14T12:21:07.350Z,-1.40
2022-12-14T12:22:01.429Z,-1.24
2022-12-14T12:23:10.342Z,-1.24
2022-12-14T12:24:03.864Z,-1.24
2022-12-14T12:25:25.633Z,-1.24
2022-12-14T12:26:05.933Z,-1.24
2022-12-14T12:27:02.504Z,-1.19
2022-12-14T12:28:04.252Z,-1.19
2022-12-14T12:29:03.789Z,-1.19
2022-12-14T12:30:04.551Z,-1.19
2022-12-14T12:31:10.490Z,-1.19
2022-12-14T12:32:06.019Z,-1.11
2022-12-14T12:33:05.960Z,-1.11
2022-12-14T12:34:04.572Z,-1.11
2022-12-14T12:35:10.683Z,-1.11
2022-12-14T12:36:03.550Z,-1.11
2022-12-14T12:37:25.816Z,-1.06
2022-12-14T12:38:06.528Z,-1.06
2022-12-14T12:39:03.201Z,-1.06
2022-12-14T12:40:03.776Z,-1.06
2022-12-14T12:41:10.308Z,-1.06
2022-12-14T12:42:05.650Z,-1.01
2022-12-14T12:43:00.465Z,-1.01
2022-12-14T12:44:10.322Z,-1.01
2022-12-14T12:45:00.389Z,-1.01
2022-12-14T12:46:03.583Z,-1.01
2022-12-14T12:47:22.759Z,-0.88
2022-12-14T12:48:10.313Z,-0.88
2022-12-14T12:49:03.936Z,-0.88
2022-12-14T12:50:03.131Z,-0.88
2022-12-14T12:51:06.108Z,-0.88
2022-12-14T12:52:02.619Z,-0.76